Dew Point Data


Current

Temp 52.0 F. Dew Point 24.1 F.


Dew Point Comfort Scale

dewpoints

Date, Time Temperature Dew Point
Sat Apr 4 00:08:05 2020 57.0 F. 48.9 F.
Sat Apr 4 01:08:05 2020 56.0 F. 48.9 F.
Sat Apr 4 02:08:05 2020 52.0 F. 46.9 F.
Sat Apr 4 03:08:05 2020 48.0 F. 44.1 F.
Sat Apr 4 04:08:05 2020 47.0 F. 43.0 F.
Sat Apr 4 05:08:05 2020 46.0 F. 41.0 F.
Sat Apr 4 06:08:05 2020 45.0 F. 39.9 F.
Sat Apr 4 07:08:05 2020 44.0 F. 39.0 F.
Sat Apr 4 08:08:05 2020 43.0 F. 37.9 F.
Sat Apr 4 09:08:05 2020 43.0 F. 39.0 F.
Sat Apr 4 10:08:06 2020 44.0 F. 37.9 F.
Sat Apr 4 11:08:05 2020 44.0 F. 37.9 F.
Sat Apr 4 12:08:04 2020 44.0 F. 37.9 F.
Sat Apr 4 13:08:05 2020 46.0 F. 39.0 F.
Sat Apr 4 14:08:05 2020 45.0 F. 39.0 F.
Sat Apr 4 15:08:05 2020 45.0 F. 39.0 F.
Sat Apr 4 16:08:06 2020 46.0 F. 39.9 F.
Sat Apr 4 17:08:05 2020 45.0 F. 39.0 F.
Sat Apr 4 18:08:05 2020 46.0 F. 39.0 F.
Sat Apr 4 19:08:05 2020 45.0 F. 39.9 F.
Sat Apr 4 20:08:06 2020 43.0 F. 41.0 F.
Sat Apr 4 21:08:05 2020 44.0 F. 41.0 F.
Sat Apr 4 22:08:05 2020 44.0 F. 42.1 F.
Sat Apr 4 23:08:05 2020 44.0 F. 42.1 F.
Sun Apr 5 00:08:05 2020 44.0 F. 42.1 F.
Sun Apr 5 01:08:05 2020 44.0 F. 42.1 F.
Sun Apr 5 02:08:05 2020 44.0 F. 42.1 F.
Sun Apr 5 03:08:05 2020 44.0 F. 42.1 F.
Sun Apr 5 04:08:05 2020 45.0 F. 42.1 F.
Sun Apr 5 05:08:05 2020 45.0 F. 42.1 F.
Sun Apr 5 06:08:05 2020 45.0 F. 42.1 F.
Sun Apr 5 07:08:05 2020 45.0 F. 42.1 F.
Sun Apr 5 08:08:05 2020 46.0 F. 42.1 F.
Sun Apr 5 09:08:04 2020 47.0 F. 43.0 F.
Sun Apr 5 10:08:05 2020 47.0 F. 43.0 F.
Sun Apr 5 11:08:06 2020 48.0 F. 44.1 F.
Sun Apr 5 12:08:05 2020 48.0 F. 44.1 F.
Sun Apr 5 13:08:04 2020 50.0 F. 45.0 F.
Sun Apr 5 14:08:05 2020 52.0 F. 46.0 F.
Sun Apr 5 15:08:05 2020 52.0 F. 46.0 F.
Sun Apr 5 16:08:05 2020 54.0 F. 46.9 F.
Sun Apr 5 17:08:13 2020 54.0 F. 46.9 F.
Sun Apr 5 18:08:04 2020 54.0 F. 46.9 F.
Sun Apr 5 19:08:05 2020 54.0 F. 46.9 F.
Sun Apr 5 20:08:05 2020 54.0 F. 46.9 F.
Sun Apr 5 21:08:05 2020 50.0 F. 46.0 F.
Sun Apr 5 22:08:05 2020 49.0 F. 46.0 F.
Sun Apr 5 23:08:04 2020 47.0 F. 46.0 F.
Mon Apr 6 00:08:05 2020 46.0 F. 45.0 F.
Mon Apr 6 01:08:05 2020 46.0 F. 45.0 F.
Mon Apr 6 02:08:04 2020 43.0 F. 42.1 F.
Mon Apr 6 03:08:05 2020 43.0 F. 43.0 F.
Mon Apr 6 04:08:05 2020 43.0 F. 43.0 F.
Mon Apr 6 05:08:04 2020 42.0 F. 41.0 F.
Mon Apr 6 06:08:06 2020 43.0 F. 42.1 F.
Mon Apr 6 07:08:05 2020 42.0 F. 42.1 F.
Mon Apr 6 08:08:05 2020 45.0 F. 45.0 F.
Mon Apr 6 09:08:05 2020 50.0 F. 48.9 F.
Mon Apr 6 10:08:05 2020 50.0 F. 48.9 F.
Mon Apr 6 11:08:59 2020
Mon Apr 6 12:08:05 2020 63.0 F. 52.0 F.
Mon Apr 6 13:08:05 2020 68.0 F. 53.1 F.
Mon Apr 6 14:08:05 2020 71.0 F. 53.1 F.
Mon Apr 6 15:08:05 2020 72.0 F. 54.0 F.
Mon Apr 6 16:08:04 2020 76.0 F. 54.0 F.
Mon Apr 6 17:08:05 2020 73.0 F. 54.0 F.
Mon Apr 6 18:08:05 2020 73.0 F. 54.0 F.
Mon Apr 6 19:08:04 2020 73.0 F. 55.0 F.
Mon Apr 6 20:08:05 2020 66.0 F. 54.0 F.
Mon Apr 6 21:08:05 2020 64.0 F. 55.0 F.
Mon Apr 6 22:08:05 2020 63.0 F. 54.0 F.
Mon Apr 6 23:08:05 2020 59.0 F. 53.1 F.
Tue Apr 7 00:08:05 2020 60.0 F. 54.0 F.
Tue Apr 7 01:08:04 2020 58.0 F. 54.0 F.
Tue Apr 7 02:08:04 2020 57.0 F. 53.1 F.
Tue Apr 7 03:08:04 2020 58.0 F. 54.0 F.
Tue Apr 7 04:08:05 2020 55.0 F. 53.1 F.
Tue Apr 7 05:08:05 2020 57.0 F. 55.0 F.
Tue Apr 7 06:08:05 2020 59.0 F. 55.9 F.
Tue Apr 7 07:08:05 2020 60.0 F. 57.0 F.
Tue Apr 7 08:08:05 2020 63.0 F. 59.0 F.
Tue Apr 7 09:08:05 2020 68.0 F. 60.1 F.
Tue Apr 7 10:08:05 2020 69.0 F. 60.1 F.
Tue Apr 7 11:08:05 2020 71.0 F. 60.1 F.
Tue Apr 7 12:08:04 2020 73.0 F. 61.0 F.
Tue Apr 7 13:08:05 2020 77.0 F. 62.1 F.
Tue Apr 7 14:08:06 2020 78.0 F. 63.0 F.
Tue Apr 7 15:08:05 2020 79.0 F. 64.0 F.
Tue Apr 7 16:08:06 2020 80.0 F. 64.0 F.
Tue Apr 7 17:08:05 2020 78.0 F. 64.9 F.
Tue Apr 7 18:08:04 2020 76.0 F. 64.9 F.
Tue Apr 7 19:08:05 2020 74.0 F. 64.0 F.
Tue Apr 7 20:08:05 2020 71.0 F. 62.1 F.
Tue Apr 7 21:08:06 2020 71.0 F. 61.0 F.
Tue Apr 7 22:08:05 2020 69.0 F. 63.0 F.
Tue Apr 7 23:08:05 2020 69.0 F. 64.0 F.
Wed Apr 8 00:08:05 2020 69.0 F. 64.9 F.
Wed Apr 8 01:08:05 2020 70.0 F. 64.9 F.
Wed Apr 8 02:08:05 2020 70.0 F. 64.9 F.
Wed Apr 8 03:08:05 2020 66.0 F. 64.0 F.
Wed Apr 8 04:08:05 2020 68.0 F. 64.9 F.
Wed Apr 8 05:08:05 2020 67.0 F. 64.9 F.
Wed Apr 8 06:08:05 2020 65.0 F. 64.0 F.
Wed Apr 8 07:08:05 2020 65.0 F. 63.0 F.
Wed Apr 8 08:08:05 2020 68.0 F. 64.9 F.
Wed Apr 8 09:09:00 2020
Wed Apr 8 10:08:05 2020 74.0 F. 66.0 F.
Wed Apr 8 11:08:05 2020 77.0 F. 64.9 F.
Wed Apr 8 12:08:04 2020 79.0 F. 64.9 F.
Wed Apr 8 13:08:06 2020 82.0 F. 62.1 F.
Wed Apr 8 14:08:06 2020 82.0 F. 60.1 F.
Wed Apr 8 15:08:05 2020 85.0 F. 59.0 F.
Wed Apr 8 16:08:05 2020 85.0 F. 53.1 F.
Wed Apr 8 17:08:06 2020 83.0 F. 57.9 F.
Wed Apr 8 18:08:05 2020 80.0 F. 64.9 F.
Wed Apr 8 19:08:40 2020
Wed Apr 8 20:08:04 2020 66.0 F. 57.0 F.
Wed Apr 8 21:08:05 2020 68.0 F. 57.9 F.
Wed Apr 8 22:08:05 2020 66.0 F. 55.9 F.
Wed Apr 8 23:08:05 2020 66.0 F. 55.9 F.
Thu Apr 9 00:08:05 2020 62.0 F. 54.0 F.
Thu Apr 9 01:08:05 2020 57.0 F. 44.1 F.
Thu Apr 9 02:08:05 2020 55.0 F. 46.0 F.
Thu Apr 9 03:08:05 2020 52.0 F. 41.0 F.
Thu Apr 9 04:08:05 2020 51.0 F. 41.0 F.
Thu Apr 9 05:08:05 2020 50.0 F. 37.9 F.
Thu Apr 9 06:08:05 2020 48.0 F. 37.0 F.
Thu Apr 9 07:08:05 2020 46.0 F. 34.0 F.
Thu Apr 9 08:08:04 2020 50.0 F. 36.0 F.
Thu Apr 9 09:08:04 2020 52.0 F. 30.0 F.
Thu Apr 9 10:08:04 2020 54.0 F. 28.9 F.
Thu Apr 9 11:08:05 2020 55.0 F. 28.0 F.
Thu Apr 9 12:08:09 2020 58.0 F. 28.9 F.
Thu Apr 9 13:08:05 2020 59.0 F. 27.0 F.
Thu Apr 9 14:08:39 2020
Thu Apr 9 15:08:05 2020 63.0 F. 26.1 F.
Thu Apr 9 16:08:06 2020 62.0 F. 26.1 F.
Thu Apr 9 17:08:05 2020 62.0 F. 23.0 F.
Thu Apr 9 18:08:05 2020 60.0 F. 21.0 F.
Thu Apr 9 19:08:05 2020 57.0 F. 21.0 F.
Thu Apr 9 20:08:05 2020 54.0 F. 21.9 F.
Thu Apr 9 21:08:06 2020 52.0 F. 24.1 F.